Nova Fatima, Brazil
Current Conditions -  °F | °C
As of 8:00 PM on Thursday 27 Nov 2014 (Local Time) from SBLO Reporting Station
Few Clouds Few Clouds  
Wind Chill: 81°   Ceiling: Unl
Heat Index: 85°   Visibility: 6mi
Dew Point: 72°   Wind: 2mph
Humidity: 74%   Direction: 130°SE
Pressure: 29.85"   Gusts: NA
Location:  23.43°S, 50.56°W
Report Text: SBLO 272200Z 13002KT 9999 FEW030 27/22 Q1011
Loading
Personal Weather Stations






























Interactive Weather Map New forecast layout! Learn more

10-Day Weather Forecast

Advertisements
Track Severe Weather on mobile